Suntree, Florida
Current Conditions -  °F | °C
As of 7:53 PM on Wednesday 22 Oct 2014 (Local Time) from KMLB Reporting Station
Clear Clear  
Wind Chill: 75°   Ceiling: Unl
Heat Index: 75°   Visibility: 10mi
Dew Point: 64°   Wind: 12mph
Humidity: 69%   Direction: 10°N
Pressure: 29.97"   Gusts: NA
Location:  28.1311°N, 80.6548°W
Report Text: KMLB 222353Z 01010KT 10SM CLR 24/18 A2997 RMK AO2 SLP147 T02390178 10294 20239 53015
Loading
Personal Weather Stations






























Interactive Weather Map
Tropical Storm Tracking
New forecast layout! Learn more

10-Day Weather Forecast

Advertisements
Track Severe Weather on mobile